createdAt,value
2018-09-24T00:01:23.644Z,98.90
2018-09-24T00:03:52.036Z,98.60
2018-09-24T00:06:20.397Z,98.50
2018-09-24T00:08:48.736Z,98.40
2018-09-24T00:11:17.166Z,98.50
2018-09-24T00:13:45.551Z,98.40
2018-09-24T00:16:13.916Z,98.30
2018-09-24T00:18:42.336Z,98.60
2018-09-24T00:21:10.714Z,98.10
2018-09-24T00:23:39.049Z,98.20
2018-09-24T00:26:07.461Z,98.40
2018-09-24T00:28:35.788Z,98.40
2018-09-24T00:31:04.205Z,98.00
2018-09-24T00:33:32.601Z,98.00
2018-09-24T00:36:00.937Z,98.00
2018-09-24T00:38:29.275Z,98.00
2018-09-24T00:40:57.681Z,97.90
2018-09-24T00:43:26.077Z,97.80
2018-09-24T00:45:54.445Z,97.60
2018-09-24T00:48:22.822Z,97.90
2018-09-24T00:50:51.202Z,98.10
2018-09-24T00:53:19.594Z,98.00
2018-09-24T00:55:47.974Z,97.90
2018-09-24T00:58:16.444Z,98.10
2018-09-24T01:00:44.877Z,97.90
2018-09-24T01:03:13.244Z,97.50
2018-09-24T01:05:48.321Z,97.70
2018-09-24T01:08:16.790Z,97.80
2018-09-24T01:10:45.178Z,97.70
2018-09-24T01:13:13.496Z,98.00
2018-09-24T01:15:41.924Z,97.60
2018-09-24T01:18:10.309Z,97.70
2018-09-24T01:20:38.685Z,97.70
2018-09-24T01:23:07.031Z,97.90
2018-09-24T01:25:35.441Z,98.00
2018-09-24T01:28:03.797Z,97.90
2018-09-24T01:30:32.179Z,97.80
2018-09-24T01:33:00.575Z,97.70
2018-09-24T01:35:29.004Z,97.90
2018-09-24T01:37:57.369Z,98.00
2018-09-24T01:40:25.762Z,97.80
2018-09-24T01:42:54.226Z,98.00
2018-09-24T01:45:22.638Z,97.50
2018-09-24T01:47:50.985Z,97.70
2018-09-24T01:50:19.364Z,97.70
2018-09-24T01:52:47.820Z,97.60
2018-09-24T01:55:16.220Z,97.60
2018-09-24T01:57:44.576Z,97.60
2018-09-24T02:00:12.954Z,97.90
2018-09-24T02:02:41.336Z,97.40
2018-09-24T02:05:15.143Z,97.60
2018-09-24T02:07:43.487Z,97.50
2018-09-24T02:10:11.821Z,97.50
2018-09-24T02:12:40.206Z,97.50
2018-09-24T02:15:08.596Z,97.10
2018-09-24T02:17:36.985Z,97.20
2018-09-24T02:20:05.343Z,97.00
2018-09-24T02:22:33.728Z,97.30
2018-09-24T02:25:02.139Z,96.70
2018-09-24T02:27:30.501Z,96.80
2018-09-24T02:29:58.851Z,96.70
2018-09-24T02:32:27.206Z,96.70
2018-09-24T02:34:57.396Z,96.90
2018-09-24T02:37:25.770Z,96.60
2018-09-24T02:39:54.178Z,96.90
2018-09-24T02:42:22.560Z,96.70
2018-09-24T02:44:56.880Z,96.70
2018-09-24T02:47:26.826Z,96.90
2018-09-24T02:49:55.160Z,96.90
2018-09-24T02:52:23.517Z,97.20
2018-09-24T02:54:51.947Z,97.40
2018-09-24T02:57:20.313Z,97.20
2018-09-24T02:59:48.645Z,97.50
2018-09-24T03:02:17.077Z,97.30
2018-09-24T03:04:45.448Z,97.20
2018-09-24T03:07:13.829Z,97.50
2018-09-24T03:09:43.087Z,97.60
2018-09-24T03:12:11.468Z,97.60
2018-09-24T03:14:39.869Z,97.70
2018-09-24T03:17:08.253Z,97.50
2018-09-24T03:19:36.670Z,97.70
2018-09-24T03:22:05.055Z,97.50
2018-09-24T03:24:33.454Z,97.40
2018-09-24T03:27:01.892Z,97.60
2018-09-24T03:29:30.301Z,97.70
2018-09-24T03:31:58.664Z,97.80
2018-09-24T03:34:27.077Z,97.50
2018-09-24T03:36:55.513Z,97.50
2018-09-24T03:39:23.943Z,97.50
2018-09-24T03:41:52.369Z,97.40
2018-09-24T03:44:20.731Z,97.40
2018-09-24T03:46:49.333Z,97.20
2018-09-24T03:49:17.719Z,97.30
2018-09-24T03:51:46.210Z,97.30
2018-09-24T03:54:14.571Z,97.40
2018-09-24T03:56:42.901Z,97.40
2018-09-24T03:59:13.051Z,97.40
2018-09-24T04:01:41.471Z,97.50
2018-09-24T04:04:15.189Z,97.50
2018-09-24T04:06:48.973Z,97.30
2018-09-24T04:09:22.853Z,97.20
2018-09-24T04:11:56.508Z,97.20
2018-09-24T04:14:30.209Z,97.10
2018-09-24T04:17:04.001Z,97.10
2018-09-24T04:19:37.937Z,97.10
2018-09-24T04:22:11.808Z,97.10
2018-09-24T04:24:46.485Z,97.20
2018-09-24T04:27:20.229Z,97.20
2018-09-24T04:29:54.111Z,97.30
2018-09-24T04:32:28.024Z,97.30
2018-09-24T04:35:01.786Z,97.30
2018-09-24T04:37:35.489Z,97.20
2018-09-24T04:40:09.200Z,97.40
2018-09-24T04:42:43.006Z,97.30
2018-09-24T04:45:16.925Z,97.10
2018-09-24T04:48:06.088Z,97.00
2018-09-24T04:50:39.966Z,97.00
2018-09-24T04:53:13.907Z,97.10
2018-09-24T04:55:47.569Z,96.90
2018-09-24T04:58:21.593Z,97.20
2018-09-24T05:00:55.445Z,97.20
2018-09-24T05:03:29.173Z,97.00
2018-09-24T05:06:03.034Z,97.10
2018-09-24T05:08:36.697Z,97.10
2018-09-24T05:11:10.544Z,97.00
2018-09-24T05:13:44.325Z,97.20
2018-09-24T05:16:18.187Z,96.80
2018-09-24T05:18:51.910Z,96.60
2018-09-24T05:21:25.704Z,96.70
2018-09-24T05:23:59.477Z,96.70
2018-09-24T05:26:33.399Z,96.80
2018-09-24T05:29:07.119Z,96.90
2018-09-24T05:31:41.009Z,96.90
2018-09-24T05:34:14.867Z,96.50
2018-09-24T05:36:48.729Z,96.50
2018-09-24T05:39:22.433Z,96.40
2018-09-24T05:41:56.352Z,96.00
2018-09-24T05:44:30.036Z,96.20
2018-09-24T05:47:03.814Z,96.10
2018-09-24T05:49:37.744Z,95.70
2018-09-24T05:52:11.744Z,95.50
2018-09-24T05:54:45.530Z,95.50
2018-09-24T05:57:19.388Z,95.40
2018-09-24T05:59:53.181Z,95.10
2018-09-24T06:02:26.979Z,95.20
2018-09-24T06:05:00.636Z,95.20
2018-09-24T06:07:37.059Z,94.90
2018-09-24T06:10:10.930Z,94.60
2018-09-24T06:12:44.629Z,94.50
2018-09-24T06:15:18.496Z,94.40
2018-09-24T06:17:52.301Z,94.30
2018-09-24T06:20:26.192Z,94.00
2018-09-24T06:22:59.966Z,93.80
2018-09-24T06:25:33.808Z,93.60
2018-09-24T06:28:07.606Z,93.70
2018-09-24T06:30:41.314Z,93.50
2018-09-24T06:33:15.214Z,93.00
2018-09-24T06:35:49.036Z,92.40
2018-09-24T06:38:22.742Z,92.10
2018-09-24T06:40:56.595Z,91.90
2018-09-24T06:43:30.546Z,91.40
2018-09-24T06:46:04.384Z,91.30
2018-09-24T06:48:38.133Z,91.10
2018-09-24T06:51:12.188Z,91.40
2018-09-24T06:53:45.980Z,91.10
2018-09-24T06:56:19.794Z,91.30
2018-09-24T06:58:53.552Z,91.20
2018-09-24T07:01:27.579Z,91.20
2018-09-24T07:04:01.513Z,91.50
2018-09-24T07:06:35.212Z,90.80
2018-09-24T07:09:09.008Z,90.40
2018-09-24T07:11:42.781Z,90.40
2018-09-24T07:14:16.577Z,89.50
2018-09-24T07:16:50.295Z,88.20
2018-09-24T07:19:24.018Z,87.50
2018-09-24T07:21:57.995Z,84.30
2018-09-24T07:24:31.901Z,84.10
2018-09-24T07:27:05.669Z,84.50
2018-09-24T07:29:39.497Z,84.50
2018-09-24T07:32:13.431Z,83.50
2018-09-24T07:34:47.118Z,83.50
2018-09-24T07:37:21.031Z,82.90
2018-09-24T07:39:54.732Z,81.40
2018-09-24T07:42:28.583Z,80.70
2018-09-24T07:45:02.399Z,79.70
2018-09-24T07:47:36.154Z,78.90
2018-09-24T07:50:09.910Z,79.10
2018-09-24T07:52:43.581Z,77.20
2018-09-24T07:55:17.470Z,76.30
2018-09-24T07:57:51.463Z,76.10
2018-09-24T08:00:25.328Z,75.40
2018-09-24T08:02:59.132Z,74.20
2018-09-24T08:05:32.949Z,73.30
2018-09-24T08:08:06.784Z,73.60
2018-09-24T08:10:40.433Z,72.60
2018-09-24T08:13:14.322Z,73.00
2018-09-24T08:15:48.226Z,71.60
2018-09-24T08:18:21.938Z,71.50
2018-09-24T08:20:55.656Z,71.80
2018-09-24T08:23:29.393Z,70.40
2018-09-24T08:26:03.252Z,70.80
2018-09-24T08:28:36.956Z,70.70
2018-09-24T08:31:10.622Z,70.40
2018-09-24T08:33:44.321Z,69.60
2018-09-24T08:36:18.169Z,69.00
2018-09-24T08:38:51.962Z,68.60
2018-09-24T08:41:25.786Z,67.30
2018-09-24T08:43:59.751Z,67.40
2018-09-24T08:46:33.390Z,68.00
2018-09-24T08:49:07.301Z,67.30
2018-09-24T08:51:41.054Z,67.30
2018-09-24T08:54:14.981Z,66.00
2018-09-24T08:56:48.846Z,64.90
2018-09-24T08:59:22.406Z,64.40
2018-09-24T09:01:56.263Z,64.20
2018-09-24T09:04:30.014Z,62.80
2018-09-24T09:07:03.888Z,62.40
2018-09-24T09:09:37.830Z,60.60
2018-09-24T09:12:11.737Z,60.30
2018-09-24T09:14:46.405Z,59.30
2018-09-24T09:17:20.300Z,60.00
2018-09-24T09:19:53.976Z,61.50
2018-09-24T09:22:27.903Z,62.20
2018-09-24T09:25:01.891Z,61.20
2018-09-24T09:27:35.606Z,61.70
2018-09-24T09:30:09.560Z,60.00
2018-09-24T09:32:43.257Z,59.90
2018-09-24T09:35:17.075Z,59.40
2018-09-24T09:37:51.019Z,59.70
2018-09-24T09:40:24.756Z,60.00
2018-09-24T09:42:58.545Z,59.00
2018-09-24T09:45:32.413Z,58.30
2018-09-24T09:48:06.147Z,57.80
2018-09-24T09:50:39.924Z,58.10
2018-09-24T09:53:13.721Z,58.20
2018-09-24T09:55:47.763Z,58.60
2018-09-24T09:58:21.627Z,58.20
2018-09-24T10:00:55.461Z,58.20
2018-09-24T10:03:29.166Z,58.90
2018-09-24T10:06:02.936Z,58.90
2018-09-24T10:08:36.754Z,59.20
2018-09-24T10:11:10.523Z,59.30
2018-09-24T10:13:44.183Z,57.60
2018-09-24T10:16:18.104Z,57.90
2018-09-24T10:18:51.968Z,58.30
2018-09-24T10:21:25.833Z,57.60
2018-09-24T10:23:59.555Z,57.00
2018-09-24T10:26:33.485Z,57.20
2018-09-24T10:29:07.224Z,56.20
2018-09-24T10:31:40.989Z,54.10
2018-09-24T10:34:14.684Z,52.80
2018-09-24T10:36:48.616Z,52.20
2018-09-24T10:39:22.330Z,52.30
2018-09-24T10:41:56.077Z,52.10
2018-09-24T10:44:29.665Z,50.90
2018-09-24T10:47:03.386Z,51.80
2018-09-24T10:49:37.182Z,51.30
2018-09-24T10:52:11.020Z,50.00
2018-09-24T10:54:45.009Z,49.80
2018-09-24T10:57:18.908Z,49.00
2018-09-24T11:02:35.554Z,48.90
2018-09-24T11:05:09.389Z,50.10
2018-09-24T11:07:43.158Z,49.20
2018-09-24T11:10:16.844Z,49.50
2018-09-24T11:12:50.875Z,48.80
2018-09-24T11:15:24.687Z,47.50
2018-09-24T11:17:58.562Z,47.10
2018-09-24T11:20:32.409Z,47.60
2018-09-24T11:23:06.265Z,47.80
2018-09-24T11:25:40.010Z,47.20
2018-09-24T11:28:19.558Z,47.10
2018-09-24T11:30:53.271Z,46.00
2018-09-24T11:33:27.209Z,46.90
2018-09-24T11:36:00.942Z,46.50
2018-09-24T11:38:34.707Z,46.30
2018-09-24T11:41:08.498Z,46.60
2018-09-24T11:43:42.365Z,45.40
2018-09-24T11:46:16.029Z,45.10
2018-09-24T11:48:49.903Z,44.80
2018-09-24T11:51:23.516Z,45.50
2018-09-24T11:53:57.267Z,45.30
2018-09-24T11:56:31.126Z,44.80
2018-09-24T11:59:04.972Z,44.80
2018-09-24T12:01:38.616Z,44.90
2018-09-24T12:04:12.503Z,44.60
2018-09-24T12:06:46.380Z,41.90
2018-09-24T12:09:20.151Z,42.10
2018-09-24T12:11:53.832Z,43.50
2018-09-24T12:14:27.708Z,43.30
2018-09-24T12:17:01.443Z,44.10
2018-09-24T12:19:35.309Z,47.70
2018-09-24T12:22:09.032Z,51.10
2018-09-24T12:24:42.820Z,52.70
2018-09-24T12:27:17.201Z,54.90
2018-09-24T12:29:50.932Z,56.80
2018-09-24T12:32:24.547Z,58.60
2018-09-24T12:34:58.417Z,60.30
2018-09-24T12:37:32.196Z,61.00
2018-09-24T12:40:05.951Z,61.50
2018-09-24T12:42:39.627Z,62.30
2018-09-24T12:45:13.403Z,61.70
2018-09-24T12:47:47.303Z,61.10
2018-09-24T12:50:21.168Z,61.10
2018-09-24T12:52:54.928Z,60.40
2018-09-24T12:55:28.763Z,58.50
2018-09-24T12:58:02.340Z,56.00
2018-09-24T13:00:36.023Z,53.10
2018-09-24T13:03:09.697Z,51.60
2018-09-24T13:05:43.502Z,49.70
2018-09-24T13:08:17.242Z,50.50
2018-09-24T13:10:51.022Z,50.80
2018-09-24T13:13:24.694Z,50.10
2018-09-24T13:15:58.678Z,48.50
2018-09-24T13:18:32.642Z,48.90
2018-09-24T13:21:06.625Z,48.60
2018-09-24T13:23:40.645Z,49.20
2018-09-24T13:26:14.449Z,49.10
2018-09-24T13:28:48.246Z,51.70
2018-09-24T13:31:22.332Z,54.20
2018-09-24T13:33:56.119Z,56.00
2018-09-24T13:36:29.879Z,55.90
2018-09-24T13:39:03.518Z,57.10
2018-09-24T13:41:37.376Z,59.20
2018-09-24T13:44:11.344Z,59.60
2018-09-24T13:46:45.195Z,59.70
2018-09-24T13:49:18.880Z,58.20
2018-09-24T13:51:52.663Z,56.00
2018-09-24T13:54:26.543Z,56.30
2018-09-24T13:57:00.321Z,56.70
2018-09-24T13:59:34.190Z,56.30
2018-09-24T14:02:08.551Z,55.80
2018-09-24T14:04:42.253Z,56.10
2018-09-24T14:07:16.516Z,53.30
2018-09-24T14:09:50.358Z,49.80
2018-09-24T14:12:24.088Z,47.90
2018-09-24T14:14:57.761Z,49.90
2018-09-24T14:17:31.687Z,52.10
2018-09-24T14:20:05.371Z,54.30
2018-09-24T14:22:39.212Z,56.10
2018-09-24T14:25:13.014Z,56.20
2018-09-24T14:27:46.741Z,56.40
2018-09-24T14:30:20.801Z,56.40
2018-09-24T14:32:54.544Z,55.10
2018-09-24T14:35:28.363Z,54.30
2018-09-24T14:38:02.299Z,53.60
2018-09-24T14:40:36.105Z,52.10
2018-09-24T14:43:10.106Z,52.40
2018-09-24T14:45:43.908Z,52.70
2018-09-24T14:48:17.618Z,53.20
2018-09-24T14:50:51.400Z,53.50
2018-09-24T14:53:25.295Z,53.00
2018-09-24T14:55:59.033Z,53.90
2018-09-24T14:58:32.853Z,54.20
2018-09-24T15:01:06.645Z,54.90
2018-09-24T15:03:40.591Z,55.00
2018-09-24T15:06:14.426Z,53.50
2018-09-24T15:08:48.312Z,52.80
2018-09-24T15:11:22.068Z,52.00
2018-09-24T15:13:55.746Z,52.60
2018-09-24T15:16:29.584Z,52.10
2018-09-24T15:19:03.379Z,50.80
2018-09-24T15:21:37.276Z,50.00
2018-09-24T15:24:10.920Z,48.80
2018-09-24T15:26:44.926Z,49.70
2018-09-24T15:29:18.793Z,48.80
2018-09-24T15:31:52.506Z,49.00
2018-09-24T15:34:26.291Z,49.30
2018-09-24T15:36:59.932Z,48.80
2018-09-24T15:39:33.663Z,48.90
2018-09-24T15:42:07.397Z,49.40
2018-09-24T15:44:41.432Z,48.60
2018-09-24T15:47:15.209Z,49.00
2018-09-24T15:49:48.928Z,48.60
2018-09-24T15:52:22.873Z,47.90
2018-09-24T15:54:56.676Z,47.70
2018-09-24T15:57:30.521Z,48.20
2018-09-24T16:00:04.245Z,49.10
2018-09-24T16:02:38.224Z,49.50
2018-09-24T16:05:12.015Z,49.80
2018-09-24T16:07:45.714Z,50.60
2018-09-24T16:10:19.598Z,50.70
2018-09-24T16:12:53.244Z,50.40
2018-09-24T16:15:27.008Z,50.90
2018-09-24T16:18:00.532Z,50.40
2018-09-24T16:20:34.298Z,50.30
2018-09-24T16:23:08.237Z,49.30
2018-09-24T16:25:41.997Z,47.30
2018-09-24T16:28:15.843Z,48.00
2018-09-24T16:30:49.561Z,48.40
2018-09-24T16:33:23.348Z,49.00
2018-09-24T16:35:57.132Z,49.30
2018-09-24T16:38:31.011Z,50.40
2018-09-24T16:41:04.924Z,50.70
2018-09-24T16:43:38.715Z,50.80
2018-09-24T16:46:12.647Z,51.40
2018-09-24T16:48:46.335Z,52.10
2018-09-24T16:51:20.097Z,52.20
2018-09-24T16:53:53.930Z,52.70
2018-09-24T16:56:27.708Z,53.00
2018-09-24T16:59:01.639Z,53.40
2018-09-24T17:01:35.501Z,54.00
2018-09-24T17:04:09.181Z,54.40
2018-09-24T17:06:42.998Z,55.00
2018-09-24T17:09:16.857Z,55.40
2018-09-24T17:11:50.712Z,55.90
2018-09-24T17:14:24.487Z,56.40
2018-09-24T17:16:58.150Z,56.70
2018-09-24T17:19:32.096Z,57.10
2018-09-24T17:22:05.972Z,57.40
2018-09-24T17:24:39.684Z,57.60
2018-09-24T17:27:13.428Z,59.00
2018-09-24T17:29:47.123Z,59.90
2018-09-24T17:32:20.864Z,59.40
2018-09-24T17:34:54.764Z,61.10
2018-09-24T17:37:28.521Z,59.00
2018-09-24T17:40:02.302Z,59.30
2018-09-24T17:42:36.181Z,59.10
2018-09-24T17:45:09.917Z,60.40
2018-09-24T17:47:43.725Z,61.40
2018-09-24T17:50:17.539Z,60.50
2018-09-24T17:52:51.186Z,62.60
2018-09-24T17:55:25.055Z,65.40
2018-09-24T17:57:58.933Z,66.10
2018-09-24T18:00:32.563Z,67.80
2018-09-24T18:03:06.526Z,67.80
2018-09-24T18:05:40.571Z,67.60
2018-09-24T18:08:14.281Z,68.60
2018-09-24T18:10:48.041Z,68.40
2018-09-24T18:13:21.943Z,68.70
2018-09-24T18:15:55.603Z,70.40
2018-09-24T18:18:29.505Z,69.80
2018-09-24T18:21:03.966Z,70.90
2018-09-24T18:23:37.816Z,71.20
2018-09-24T18:26:11.606Z,71.70
2018-09-24T18:28:45.474Z,70.90
2018-09-24T18:31:19.528Z,71.20
2018-09-24T18:33:53.493Z,69.60
2018-09-24T18:36:27.341Z,68.70
2018-09-24T18:39:01.086Z,68.60
2018-09-24T18:41:35.085Z,68.90
2018-09-24T18:44:08.934Z,69.30
2018-09-24T18:46:42.726Z,69.30
2018-09-24T18:49:16.424Z,69.30
2018-09-24T18:51:50.344Z,68.50
2018-09-24T18:54:24.209Z,69.70
2018-09-24T18:56:58.106Z,68.40
2018-09-24T18:59:31.912Z,69.00
2018-09-24T19:02:06.547Z,68.70
2018-09-24T19:04:40.248Z,68.70
2018-09-24T19:07:14.248Z,69.00
2018-09-24T19:09:47.989Z,68.70
2018-09-24T19:12:21.751Z,69.30
2018-09-24T19:14:55.606Z,69.60
2018-09-24T19:17:29.264Z,70.50
2018-09-24T19:20:03.086Z,70.80
2018-09-24T19:22:36.849Z,71.40
2018-09-24T19:25:10.795Z,71.40
2018-09-24T19:27:44.537Z,71.70
2018-09-24T19:30:18.365Z,71.50
2018-09-24T19:32:52.172Z,71.90
2018-09-24T19:35:25.840Z,72.20
2018-09-24T19:37:59.467Z,72.00
2018-09-24T19:40:33.281Z,71.90
2018-09-24T19:43:06.937Z,71.90
2018-09-24T19:45:40.848Z,71.70
2018-09-24T19:48:15.063Z,71.40
2018-09-24T19:50:48.964Z,71.70
2018-09-24T19:53:22.665Z,71.70
2018-09-24T19:55:56.310Z,71.80
2018-09-24T19:58:30.012Z,71.50
2018-09-24T20:01:03.908Z,71.30
2018-09-24T20:03:37.540Z,71.40
2018-09-24T20:06:11.296Z,71.40
2018-09-24T20:08:45.086Z,71.10
2018-09-24T20:11:18.807Z,71.10
2018-09-24T20:13:52.502Z,71.00
2018-09-24T20:16:26.470Z,71.00
2018-09-24T20:19:00.300Z,71.20
2018-09-24T20:21:34.055Z,71.00
2018-09-24T20:24:07.851Z,71.10
2018-09-24T20:26:41.761Z,70.90
2018-09-24T20:29:15.500Z,70.80
2018-09-24T20:31:49.212Z,70.50
2018-09-24T20:34:22.947Z,70.90
2018-09-24T20:36:56.903Z,70.90
2018-09-24T20:39:30.569Z,70.70
2018-09-24T20:42:04.274Z,70.50
2018-09-24T20:44:37.965Z,70.70
2018-09-24T20:47:11.688Z,71.00
2018-09-24T20:49:45.282Z,70.70
2018-09-24T20:52:19.027Z,70.60
2018-09-24T20:54:52.708Z,70.90
2018-09-24T20:57:26.439Z,70.80
2018-09-24T21:00:00.315Z,70.80
2018-09-24T21:02:34.047Z,71.00
2018-09-24T21:05:07.805Z,71.50
2018-09-24T21:07:41.728Z,71.40
2018-09-24T21:10:15.425Z,71.50
2018-09-24T21:12:49.123Z,72.00
2018-09-24T21:15:22.874Z,71.80
2018-09-24T21:17:56.668Z,71.70
2018-09-24T21:20:30.493Z,71.90
2018-09-24T21:23:04.321Z,72.10
2018-09-24T21:25:38.082Z,72.10
2018-09-24T21:28:11.844Z,72.50
2018-09-24T21:30:45.577Z,72.60
2018-09-24T21:33:19.278Z,72.80
2018-09-24T21:35:53.057Z,73.10
2018-09-24T21:38:26.955Z,74.00
2018-09-24T21:41:00.587Z,73.30
2018-09-24T21:43:34.398Z,73.50
2018-09-24T21:46:08.089Z,73.70
2018-09-24T21:48:41.743Z,74.00
2018-09-24T21:51:15.461Z,74.30
2018-09-24T21:53:49.162Z,74.50
2018-09-24T21:56:23.099Z,74.70
2018-09-24T21:58:56.980Z,75.00
2018-09-24T22:01:30.828Z,74.90
2018-09-24T22:04:04.797Z,75.20
2018-09-24T22:06:38.629Z,75.40
2018-09-24T22:09:14.271Z,75.70
2018-09-24T22:11:48.087Z,75.90
2018-09-24T22:14:21.873Z,76.20
2018-09-24T22:16:55.603Z,76.10
2018-09-24T22:19:29.475Z,76.50
2018-09-24T22:22:03.324Z,76.70
2018-09-24T22:24:37.113Z,77.00
2018-09-24T22:27:11.097Z,77.50
2018-09-24T22:29:44.805Z,77.90
2018-09-24T22:32:18.648Z,78.00
2018-09-24T22:34:52.290Z,78.10
2018-09-24T22:37:26.011Z,78.10
2018-09-24T22:39:59.875Z,78.60
2018-09-24T22:42:33.558Z,78.70
2018-09-24T22:45:07.151Z,79.00
2018-09-24T22:47:40.820Z,78.60
2018-09-24T22:50:14.516Z,79.00
2018-09-24T22:52:48.117Z,79.50
2018-09-24T22:55:21.772Z,80.00
2018-09-24T22:57:55.487Z,79.60
2018-09-24T23:00:29.420Z,79.60
2018-09-24T23:03:03.021Z,80.80
2018-09-24T23:05:36.685Z,80.50
2018-09-24T23:08:10.332Z,80.70
2018-09-24T23:10:43.997Z,80.80
2018-09-24T23:13:17.624Z,81.10
2018-09-24T23:15:51.497Z,81.30
2018-09-24T23:18:25.132Z,81.50
2018-09-24T23:20:58.803Z,81.80
2018-09-24T23:23:32.351Z,82.00
2018-09-24T23:26:06.251Z,82.10
2018-09-24T23:28:39.959Z,82.40
2018-09-24T23:31:13.654Z,82.50
2018-09-24T23:33:47.518Z,82.50
2018-09-24T23:36:21.256Z,82.60
2018-09-24T23:38:54.922Z,83.00
2018-09-24T23:41:28.818Z,83.20
2018-09-24T23:44:02.544Z,83.50
2018-09-24T23:46:36.343Z,83.80
2018-09-24T23:49:10.034Z,83.80
2018-09-24T23:51:43.754Z,84.20
2018-09-24T23:54:17.585Z,84.50
2018-09-24T23:56:51.310Z,84.60
2018-09-24T23:59:25.068Z,84.90
